Terminal Aerodrome Forecast
Issued by NWS

Home | Current Version | Previous Version | Text Only | Print | Product List | Glossary On
Versions: 1 2 3 4 5 6 7 8 9 10 11 12 13
240
FTUS46 KLOX 241735
TAFPRB
TAF
KPRB 241735Z 2418/2518 VRB03KT P6SM BKN120
     FM242200 22014G20KT P6SM BKN120
     FM250100 22012KT P6SM BKN120
     FM250500 30008KT P6SM SCT150
     FM251000 VRB03KT P6SM SCT150=

USA.gov is the U.S. government's official web portal to all federal, state and local government web resources and services.